Time;durP1;ratioP1;P1;durP2;ratioP2;P2;SDS_P1;SDS_P2;PMS_P1;PMS_P2;Temp;Humidity;BMP_temperature;BMP_pressure;BME280_temperature;BME280_humidity;BME280_pressure;Samples;Min_cycle;Max_cycle;Signal;HPM_P1;HPM_P2
2021/11/07 00:05:10;;;;;;;23.43;14.00;;;;;;;3.56;100.00;101024.48;1577291;88;21089;-74
2021/11/07 00:07:49;;;;;;;22.70;13.40;;;;;;;3.54;100.00;101022.40;1587823;88;21076;-74
2021/11/07 00:12:42;;;;;;;23.40;13.67;;;;;;;3.52;100.00;101031.00;1534877;92;21086;-74
2021/11/07 00:15:08;;;;;;;21.63;13.73;;;;;;;3.49;100.00;101020.05;1541020;93;21595;-72
2021/11/07 00:17:36;;;;;;;23.10;12.97;;;;;;;3.47;100.00;101019.30;1540775;93;21189;-72
2021/11/07 00:25:15;;;;;;;26.82;14.98;;;;;;;3.36;100.00;101011.95;1533900;93;21102;-73
2021/11/07 00:27:42;;;;;;;24.77;13.77;;;;;;;3.34;100.00;101018.38;1538628;93;21084;-72
2021/11/07 00:35:42;;;;;;;27.63;17.60;;;;;;;3.19;100.00;101009.06;1551509;91;21130;-73
2021/11/07 00:37:44;;;;;;;31.40;19.53;;;;;;;3.14;100.00;101007.66;1552516;92;21185;-73
2021/11/07 00:48:19;;;;;;;37.23;21.50;;;;;;;2.95;100.00;101007.48;1523815;94;21110;-73
2021/11/07 00:50:52;;;;;;;40.80;24.07;;;;;;;2.93;100.00;101012.08;1522568;94;21121;-73
2021/11/07 00:55:50;;;;;;;45.13;26.07;;;;;;;2.97;100.00;101013.58;1565084;91;21114;-73
2021/11/07 00:58:17;;;;;;;46.57;26.03;;;;;;;3.04;100.00;101014.05;1564533;90;21568;-73
2021/11/07 01:03:27;;;;;;;43.37;25.73;;;;;;;3.09;100.00;101019.11;1564856;90;21620;-73
2021/11/07 01:05:53;;;;;;;40.83;26.73;;;;;;;3.04;100.00;101024.25;1569537;91;21556;-74
2021/11/07 01:08:20;;;;;;;51.60;34.37;;;;;;;3.04;100.00;101022.07;1550256;90;21050;-74
2021/11/07 01:10:47;;;;;;;47.43;34.43;;;;;;;3.05;100.00;101027.81;1586565;90;21158;-74
2021/11/07 01:13:14;;;;;;;54.13;34.43;;;;;;;3.06;100.00;101032.17;1597841;88;21118;-74
2021/11/07 01:15:42;;;;;;;45.80;31.63;;;;;;;3.05;100.00;101030.48;1616521;88;21060;-73
2021/11/07 01:18:09;;;;;;;50.50;32.57;;;;;;;3.06;100.00;101027.32;1610693;88;21137;-73
2021/11/07 01:20:36;;;;;;;45.00;32.07;;;;;;;3.06;100.00;101027.32;1610801;88;21034;-73
2021/11/07 01:25:33;;;;;;;50.03;30.63;;;;;;;3.03;100.00;101022.56;1611126;88;21038;-73
2021/11/07 01:28:00;;;;;;;42.40;28.47;;;;;;;3.02;100.00;101028.84;1608169;88;21014;-74
2021/11/07 01:30:30;;;;;;;44.07;29.00;;;;;;;3.00;100.00;101028.09;1610399;88;21067;-74
2021/11/07 01:35:47;;;;;;;41.77;27.57;;;;;;;2.90;100.00;101032.30;1586115;89;21567;-73
2021/11/07 01:38:14;;;;;;;38.23;24.87;;;;;;;2.85;100.00;101029.06;1600800;88;21057;-74
2021/11/07 01:40:47;;;;;;;36.80;24.90;;;;;;;2.79;100.00;101027.64;1612162;88;21524;-71
2021/11/07 01:43:10;;;;;;;40.50;24.77;;;;;;;2.75;100.00;101026.13;1616093;87;21050;-71
2021/11/07 01:45:52;;;;;;;40.40;25.90;;;;;;;2.70;100.00;101028.71;1624349;87;21047;-73
2021/11/07 01:48:19;;;;;;;36.57;24.83;;;;;;;2.68;100.00;101030.63;1623845;87;21052;-72
2021/11/07 01:50:52;;;;;;;39.43;24.53;;;;;;;2.66;100.00;101026.22;1617373;87;21084;-72
2021/11/07 01:55:49;;;;;;;42.30;26.37;;;;;;;2.60;100.00;101028.41;1625064;84;21092;-73
2021/11/07 01:58:16;;;;;;;44.03;27.87;;;;;;;2.56;100.00;101021.07;1675500;84;21028;-73
2021/11/07 02:00:43;;;;;;;39.43;27.30;;;;;;;2.51;100.00;101017.83;1660710;85;21472;-72
2021/11/07 02:03:11;;;;;;;46.10;29.87;;;;;;;2.43;100.00;101021.47;1686890;84;21041;-73
2021/11/07 02:05:39;;;;;;;41.50;26.23;;;;;;;2.35;100.00;101024.59;1676930;85;21084;-73
2021/11/07 02:08:07;;;;;;;41.10;26.20;;;;;;;2.28;100.00;101029.47;1673115;84;21109;-73
2021/11/07 02:10:35;;;;;;;40.60;24.57;;;;;;;2.25;100.00;101020.79;1649848;85;21581;-73
2021/11/07 02:13:02;;;;;;;39.33;24.97;;;;;;;2.24;100.00;101021.23;1675314;83;20998;-73
2021/11/07 02:15:28;;;;;;;36.30;24.53;;;;;;;2.22;100.00;101023.63;1684937;83;21522;-72
2021/11/07 02:17:55;;;;;;;34.50;22.17;;;;;;;2.20;100.00;101017.53;1684689;84;21036;-72
2021/11/07 02:20:32;;;;;;;36.83;23.50;;;;;;;2.19;100.00;101027.33;1690689;83;21009;-73
2021/11/07 02:23:02;;;;;;;33.33;21.23;;;;;;;2.22;100.00;101023.15;1661903;85;21112;-73
2021/11/07 02:25:29;;;;;;;33.27;19.47;;;;;;;2.27;100.00;101020.21;1693569;84;21042;-73
2021/11/07 02:27:56;;;;;;;30.50;19.23;;;;;;;2.30;100.00;101021.34;1670068;84;21698;-73
2021/11/07 02:30:23;;;;;;;31.40;17.80;;;;;;;2.31;100.00;101017.73;1688479;83;21563;-73
2021/11/07 02:32:50;;;;;;;30.37;17.80;;;;;;;2.31;100.00;101018.21;1687797;84;21093;-73
2021/11/07 02:35:17;;;;;;;30.90;18.87;;;;;;;2.28;100.00;101013.45;1658002;84;21097;-73
2021/11/07 02:37:44;;;;;;;31.27;18.80;;;;;;;2.24;100.00;101021.23;1669101;83;21535;-73
2021/11/07 02:40:11;;;;;;;30.53;19.80;;;;;;;2.21;100.00;101026.79;1702393;83;21046;-71
2021/11/07 02:42:42;;;;;;;31.03;18.73;;;;;;;2.20;100.00;101019.72;1709336;81;21093;-73
2021/11/07 02:45:12;;;;;;;29.57;18.03;;;;;;;2.21;100.00;101022.78;1716530;83;21080;-73
2021/11/07 02:47:39;;;;;;;25.77;16.43;;;;;;;2.20;100.00;101018.88;1755863;80;21036;-72
2021/11/07 02:50:08;;;;;;;27.50;17.53;;;;;;;2.16;100.00;101018.20;1701762;82;21113;-73
2021/11/07 02:52:36;;;;;;;29.07;18.80;;;;;;;2.13;100.00;101016.19;1700552;82;21137;-73
2021/11/07 02:55:04;;;;;;;29.07;19.80;;;;;;;2.05;100.00;101011.30;1759973;80;21588;-73
2021/11/07 02:57:30;;;;;;;29.47;19.10;;;;;;;1.99;100.00;101020.53;1778014;80;20987;-73
2021/11/07 03:00:03;;;;;;;31.10;20.20;;;;;;;1.93;100.00;101008.03;1756837;80;21136;-73
2021/11/07 03:02:28;;;;;;;32.17;18.80;;;;;;;1.90;100.00;101023.28;1748752;80;21512;-73
2021/11/07 03:04:55;;;;;;;26.20;16.70;;;;;;;1.88;100.00;101023.00;1716226;82;21092;-73
2021/11/07 03:07:22;;;;;;;30.40;18.83;;;;;;;1.87;100.00;101018.12;1762375;80;21025;-73
2021/11/07 03:09:49;;;;;;;29.90;17.87;;;;;;;1.90;100.00;101025.09;1706637;81;21040;-73
2021/11/07 03:12:16;;;;;;;29.77;18.10;;;;;;;1.95;100.00;101024.80;1738989;80;21050;-73
2021/11/07 03:14:47;;;;;;;33.50;18.77;;;;;;;1.98;100.00;101032.14;1704329;81;21396;-73
2021/11/07 03:17:19;;;;;;;35.33;19.73;;;;;;;2.02;100.00;101028.36;1707420;83;21013;-73
2021/11/07 03:19:47;;;;;;;36.77;20.50;;;;;;;2.02;100.00;101032.37;1732509;81;21066;-73
2021/11/07 03:22:18;;;;;;;33.33;18.53;;;;;;;2.02;100.00;101032.37;1732078;81;21024;-73
2021/11/07 03:24:45;;;;;;;27.70;17.10;;;;;;;2.02;100.00;101033.70;1734245;81;21491;-73
2021/11/07 03:27:15;;;;;;;27.67;16.50;;;;;;;1.99;100.00;101033.02;1744535;81;21492;-73
2021/11/07 03:29:43;;;;;;;27.83;16.57;;;;;;;1.95;100.00;101028.80;1729839;82;21037;-73
2021/11/07 03:32:22;;;;;;;25.53;13.90;;;;;;;1.90;100.00;101031.28;1775350;80;21049;-73
2021/11/07 03:34:48;;;;;;;24.70;14.53;;;;;;;1.87;100.00;101028.78;1748439;81;21029;-73
2021/11/07 03:37:14;;;;;;;23.10;13.73;;;;;;;1.81;100.00;101029.16;1766685;80;21021;-73
2021/11/07 03:39:41;;;;;;;22.13;12.73;;;;;;;1.73;100.00;101034.08;1759810;80;21006;-73
2021/11/07 03:42:11;;;;;;;22.03;11.73;;;;;;;1.65;100.00;101028.35;1752648;80;21017;-73
2021/11/07 03:44:38;;;;;;;21.00;12.20;;;;;;;1.56;100.00;101035.08;1768077;80;21057;-73
2021/11/07 03:47:06;;;;;;;21.40;12.47;;;;;;;1.52;100.00;101034.84;1740058;81;21770;-73
2021/11/07 03:49:33;;;;;;;21.00;12.10;;;;;;;1.48;100.00;101036.83;1752903;81;21091;-73
2021/11/07 03:52:00;;;;;;;21.07;12.00;;;;;;;1.47;100.00;101039.12;1762076;80;20997;-73
2021/11/07 03:54:29;;;;;;;20.43;11.70;;;;;;;1.48;100.00;101039.98;1725801;82;21063;-73
2021/11/07 03:56:58;;;;;;;18.63;11.13;;;;;;;1.46;100.00;101040.06;1749993;80;21502;-74
2021/11/07 03:59:25;;;;;;;20.17;11.83;;;;;;;1.44;100.00;101043.78;1733958;81;20981;-73
2021/11/07 04:01:52;;;;;;;21.10;11.50;;;;;;;1.40;100.00;101047.09;1729070;81;21021;-74
2021/11/07 04:04:19;;;;;;;20.83;12.80;;;;;;;1.36;100.00;101044.67;1742216;82;21014;-73
2021/11/07 04:06:48;;;;;;;22.37;12.97;;;;;;;1.32;100.00;101052.84;1738909;81;21570;-73
2021/11/07 04:09:14;;;;;;;20.43;12.17;;;;;;;1.27;100.00;101049.57;1757683;81;21612;-73
2021/11/07 04:11:41;;;;;;;21.53;13.07;;;;;;;1.24;100.00;101055.09;1738805;81;21183;-73
2021/11/07 04:14:10;;;;;;;20.30;12.20;;;;;;;1.19;100.00;101050.49;1720382;82;21030;-73
2021/11/07 04:16:37;;;;;;;19.23;11.70;;;;;;;1.12;100.00;101049.97;1742308;81;21511;-73
2021/11/07 04:19:05;;;;;;;19.47;11.83;;;;;;;1.06;100.00;101046.78;1737047;81;21047;-73
2021/11/07 04:21:32;;;;;;;21.17;12.70;;;;;;;0.98;100.00;101044.55;1742558;81;21085;-73
2021/11/07 04:23:59;;;;;;;20.93;11.70;;;;;;;0.95;100.00;101046.05;1729121;82;21025;-73
2021/11/07 04:26:26;;;;;;;19.57;11.33;;;;;;;0.89;100.00;101044.59;1732258;82;21060;-72
2021/11/07 04:28:54;;;;;;;18.80;11.47;;;;;;;0.88;100.00;101048.66;1736485;81;21048;-72
2021/11/07 04:31:21;;;;;;;19.73;11.60;;;;;;;0.87;100.00;101045.15;1748957;81;21070;-72
2021/11/07 04:33:47;;;;;;;18.77;11.37;;;;;;;0.89;100.00;101047.73;1738686;81;21053;-72
2021/11/07 04:36:15;;;;;;;20.80;11.83;;;;;;;0.89;100.00;101042.41;1734483;81;21601;-73
2021/11/07 04:38:42;;;;;;;19.07;11.43;;;;;;;0.90;100.00;101042.33;1738352;81;21024;-72
2021/11/07 04:41:16;;;;;;;18.90;11.83;;;;;;;0.91;100.00;101040.52;1710165;82;21046;-73
2021/11/07 04:43:37;;;;;;;25.17;18.10;;;;;;;0.89;100.00;101045.07;1738087;81;21112;-72
2021/11/07 04:46:04;;;;;;;25.10;18.70;;;;;;;0.90;100.00;101047.65;1733971;81;20985;-72
2021/11/07 04:48:32;;;;;;;23.73;15.83;;;;;;;0.91;100.00;101047.17;1731363;81;21072;-72
2021/11/07 04:50:59;;;;;;;22.70;14.97;;;;;;;0.90;100.00;101046.32;1736775;81;21008;-72
2021/11/07 04:53:26;;;;;;;21.47;13.70;;;;;;;0.91;100.00;101046.69;1732765;81;21574;-72
2021/11/07 04:55:54;;;;;;;19.47;12.33;;;;;;;0.91;100.00;101048.50;1762411;80;21524;-72
2021/11/07 04:58:21;;;;;;;20.67;12.43;;;;;;;0.91;100.00;101053.83;1732841;81;21531;-73
2021/11/07 05:00:48;;;;;;;18.77;11.40;;;;;;;0.92;100.00;101048.88;1738610;81;21088;-72
2021/11/07 05:03:14;;;;;;;20.30;11.80;;;;;;;0.93;100.00;101048.80;1737151;81;21109;-73
2021/11/07 05:05:42;;;;;;;19.87;12.10;;;;;;;0.95;100.00;101055.37;1733901;81;21067;-72
2021/11/07 05:08:09;;;;;;;19.90;12.07;;;;;;;0.95;100.00;101062.03;1733988;81;21019;-72
2021/11/07 05:10:36;;;;;;;21.97;12.23;;;;;;;0.93;100.00;101062.11;1722137;83;21067;-71
2021/11/07 05:13:04;;;;;;;20.33;11.70;;;;;;;0.92;100.00;101063.52;1707604;83;21078;-72
2021/11/07 05:15:31;;;;;;;20.70;12.27;;;;;;;0.96;100.00;101071.75;1711861;83;21164;-71
2021/11/07 05:17:57;;;;;;;22.20;13.40;;;;;;;1.09;100.00;101065.27;1708533;83;21085;-72
2021/11/07 05:20:24;;;;;;;23.60;14.10;;;;;;;1.23;100.00;101062.69;1705180;83;21133;-73
2021/11/07 05:22:51;;;;;;;19.90;12.07;;;;;;;1.38;100.00;101064.09;1738773;81;21038;-72
2021/11/07 05:25:17;;;;;;;21.07;12.60;;;;;;;1.44;100.00;101073.09;1733863;82;21030;-73
2021/11/07 05:27:44;;;;;;;20.77;12.00;;;;;;;1.51;100.00;101075.80;1716133;82;21013;-73
2021/11/07 05:30:12;;;;;;;22.07;12.67;;;;;;;1.60;100.00;101074.41;1711136;83;21013;-73
2021/11/07 05:32:41;;;;;;;22.93;13.43;;;;;;;1.70;100.00;101080.94;1707510;83;21089;-73
2021/11/07 05:35:08;;;;;;;21.40;12.77;;;;;;;1.72;100.00;101081.70;1710449;83;21023;-73
2021/11/07 05:37:35;;;;;;;21.50;11.60;;;;;;;1.63;100.00;101080.42;1712290;83;21073;-74
2021/11/07 05:40:03;;;;;;;19.90;11.20;;;;;;;1.59;100.00;101074.86;1695520;83;21054;-73
2021/11/07 05:42:30;;;;;;;20.37;11.53;;;;;;;1.59;100.00;101071.34;1707265;83;21058;-73
2021/11/07 05:44:56;;;;;;;18.80;11.23;;;;;;;1.62;100.00;101074.70;1704405;83;21510;-73
2021/11/07 05:47:23;;;;;;;20.63;12.10;;;;;;;1.63;100.00;101071.55;1707444;83;21056;-73
2021/11/07 05:49:50;;;;;;;20.53;12.20;;;;;;;1.66;100.00;101066.05;1705639;83;21074;-73
2021/11/07 05:52:17;;;;;;;19.90;12.13;;;;;;;1.69;100.00;101071.21;1713771;83;21093;-74
2021/11/07 05:54:44;;;;;;;21.40;12.63;;;;;;;1.71;100.00;101071.98;1701252;83;21042;-73
2021/11/07 05:57:11;;;;;;;24.53;15.53;;;;;;;1.76;100.00;101061.91;1724241;82;21112;-73
2021/11/07 05:59:37;;;;;;;19.87;11.60;;;;;;;1.83;100.00;101063.27;1698493;83;21061;-73
2021/11/07 06:02:04;;;;;;;17.60;10.47;;;;;;;1.89;100.00;101062.92;1697196;83;21048;-73
2021/11/07 06:04:31;;;;;;;19.40;10.77;;;;;;;1.96;100.00;101066.55;1704953;83;21030;-73
2021/11/07 06:06:58;;;;;;;18.50;10.77;;;;;;;2.00;100.00;101064.95;1707882;83;21050;-74
2021/11/07 06:09:25;;;;;;;19.37;11.30;;;;;;;2.09;100.00;101067.55;1725588;83;21041;-73
2021/11/07 06:11:51;;;;;;;18.23;11.37;;;;;;;2.18;100.00;101068.78;1724098;83;21522;-73
2021/11/07 06:14:20;;;;;;;22.63;11.83;;;;;;;2.28;100.00;101066.83;1738448;81;21008;-73
2021/11/07 06:16:46;;;;;;;21.90;11.47;;;;;;;2.39;100.00;101073.30;1732064;81;21009;-73
2021/11/07 06:19:14;;;;;;;20.10;11.73;;;;;;;2.43;100.00;101077.52;1731602;81;21022;-73
2021/11/07 06:21:42;;;;;;;22.10;12.40;;;;;;;2.55;100.00;101079.91;1733766;82;21526;-74
2021/11/07 06:24:12;;;;;;;21.20;12.23;;;;;;;2.65;100.00;101077.91;1734683;82;21054;-73
2021/11/07 06:26:38;;;;;;;22.80;13.93;;;;;;;2.74;100.00;101068.95;1733545;81;21034;-72
2021/11/07 06:29:04;;;;;;;20.77;12.57;;;;;;;2.81;100.00;101068.95;1734036;82;21107;-73
2021/11/07 06:31:31;;;;;;;22.97;12.93;;;;;;;2.88;100.00;101067.61;1733503;82;21020;-73
2021/11/07 06:33:58;;;;;;;20.13;11.43;;;;;;;2.96;100.00;101069.33;1735399;81;21025;-72
2021/11/07 06:36:25;;;;;;;20.77;12.33;;;;;;;3.07;100.00;101072.66;1735341;81;21052;-73
2021/11/07 06:38:51;;;;;;;20.93;12.50;;;;;;;3.16;100.00;101071.22;1741494;81;21046;-72
2021/11/07 06:41:18;;;;;;;20.73;12.80;;;;;;;3.30;100.00;101070.33;1732875;81;21443;-73
2021/11/07 06:43:44;;;;;;;21.93;12.47;;;;;;;3.46;100.00;101064.84;1726857;82;21033;-73
2021/11/07 06:46:11;;;;;;;19.77;11.87;;;;;;;3.56;100.00;101068.16;1735463;81;20982;-74
2021/11/07 06:48:38;;;;;;;21.47;11.90;;;;;;;3.69;100.00;101064.67;1733380;82;21007;-74
2021/11/07 06:51:04;;;;;;;19.73;12.20;;;;;;;3.82;100.00;101070.91;1743681;81;21651;-74
2021/11/07 06:53:32;;;;;;;20.23;12.47;;;;;;;3.96;100.00;101068.66;1729881;81;21010;-74
2021/11/07 06:55:59;;;;;;;19.23;12.00;;;;;;;4.06;100.00;101064.40;1736252;82;20998;-74
2021/11/07 06:58:25;;;;;;;19.17;11.33;;;;;;;4.15;100.00;101057.07;1735033;82;21017;-74
2021/11/07 07:00:52;;;;;;;17.10;10.67;;;;;;;4.32;100.00;101061.74;1731379;81;21015;-73
2021/11/07 07:03:18;;;;;;;18.07;11.17;;;;;;;4.43;100.00;101062.38;1732292;82;21613;-73
2021/11/07 07:05:45;;;;;;;18.30;10.70;;;;;;;4.55;100.00;101057.01;1739004;81;21013;-73
2021/11/07 07:08:17;;;;;;;19.27;11.97;;;;;;;4.67;100.00;101046.38;1750322;81;21476;-73
2021/11/07 07:10:50;;;;;;;20.20;10.90;;;;;;;4.77;100.00;101049.28;1755143;81;21547;-72
2021/11/07 07:13:23;;;;;;;20.40;12.47;;;;;;;4.87;100.00;101051.66;1743922;80;21059;-75
2021/11/07 07:15:52;;;;;;;17.73;11.38;;;;;;;4.90;100.00;101050.11;1714751;82;21073;-74
2021/11/07 07:18:22;;;;;;;20.07;11.97;;;;;;;5.08;100.00;101039.42;1720262;82;21520;-74
2021/11/07 07:21:01;;;;;;;20.97;11.70;;;;;;;5.29;100.00;101038.34;1747235;81;21037;-74
2021/11/07 07:23:37;;;;;;;18.13;10.63;;;;;;;5.49;100.00;101037.36;1742311;81;21057;-73
2021/11/07 07:31:21;;;;;;;19.75;11.95;;;;;;;6.13;100.00;101018.23;1757750;80;21057;-74
2021/11/07 07:35:51;;;;;;;19.00;10.60;;;;;;;6.61;100.00;101007.30;1760465;80;21528;-73
2021/11/07 07:38:19;;;;;;;19.97;10.90;;;;;;;6.73;100.00;101010.84;1737240;81;21028;-73
2021/11/07 07:40:46;;;;;;;18.23;10.53;;;;;;;6.83;100.00;100998.39;1781479;80;21058;-73
2021/11/07 07:43:12;;;;;;;20.53;11.73;;;;;;;6.93;100.00;100997.64;1738733;81;21136;-73
2021/11/07 07:45:39;;;;;;;21.77;12.40;;;;;;;7.06;100.00;100998.34;1746636;81;21017;-73
2021/11/07 07:48:06;;;;;;;16.77;10.57;;;;;;;7.18;100.00;100993.80;1771215;80;21053;-73
2021/11/07 07:50:36;;;;;;;17.87;10.63;;;;;;;7.19;100.00;100992.33;1738532;80;21515;-72
2021/11/07 07:53:02;;;;;;;16.93;9.77;;;;;;;7.28;100.00;100990.72;1730735;81;21017;-73
2021/11/07 07:55:28;;;;;;;18.83;11.67;;;;;;;7.53;100.00;100992.73;1726925;81;21010;-74
2021/11/07 07:57:55;;;;;;;19.50;10.67;;;;;;;7.76;100.00;100985.41;1770339;80;21049;-74
2021/11/07 08:00:22;;;;;;;17.13;11.00;;;;;;;7.97;100.00;100992.16;1740029;80;21658;-74
2021/11/07 08:02:49;;;;;;;18.80;11.17;;;;;;;8.22;100.00;100994.09;1739046;81;21044;-73
2021/11/07 08:05:16;;;;;;;18.80;10.60;;;;;;;8.42;100.00;100993.70;1747448;80;21021;-73
2021/11/07 08:07:43;;;;;;;18.77;9.53;;;;;;;8.48;100.00;100997.23;1734994;81;21140;-73
2021/11/07 08:10:12;;;;;;;19.83;11.23;;;;;;;8.58;100.00;100988.70;1707030;83;21625;-74
2021/11/07 08:12:40;;;;;;;16.17;9.23;;;;;;;8.67;100.00;100991.92;1741505;81;21622;-73
2021/11/07 08:15:11;;;;;;;16.57;8.90;;;;;;;8.85;100.00;100980.03;1751122;81;21065;-72
2021/11/07 08:17:39;;;;;;;15.07;8.73;;;;;;;8.87;100.00;100979.86;1748222;82;21491;-74
2021/11/07 08:20:09;;;;;;;18.33;9.77;;;;;;;8.84;100.00;100974.27;1751535;81;21017;-72
2021/11/07 08:22:37;;;;;;;16.37;9.50;;;;;;;8.97;100.00;100972.66;1755712;81;21565;-73
2021/11/07 08:25:11;;;;;;;16.33;9.77;;;;;;;9.09;100.00;100968.02;1752991;81;21128;-74
2021/11/07 08:27:37;;;;;;;17.97;10.20;;;;;;;9.24;100.00;100969.80;1744608;81;21618;-74
2021/11/07 08:30:07;;;;;;;15.97;9.07;;;;;;;9.36;100.00;100963.28;1757072;81;20985;-73
2021/11/07 08:32:33;;;;;;;17.13;8.87;;;;;;;9.51;100.00;100952.94;1755217;81;21484;-73
2021/11/07 08:35:00;;;;;;;17.93;9.57;;;;;;;9.72;100.00;100958.20;1759536;81;21001;-72
2021/11/07 08:40:08;;;;;;;14.60;8.10;;;;;;;10.14;100.00;100961.88;1703892;84;21029;-74
2021/11/07 08:42:42;;;;;;;13.63;8.57;;;;;;;10.40;100.00;100951.83;1704139;83;21053;-73
2021/11/07 09:01:43;;;;;;;13.58;7.15;;;;;;;10.81;100.00;100918.03;1656569;85;21088;-74
2021/11/07 09:04:20;;;;;;;12.23;6.97;;;;;;;10.99;100.00;100927.53;1686470;84;21260;-74
2021/11/07 09:09:32;;;;;;;13.32;7.65;;;;;;;11.28;100.00;100909.38;1688832;83;21042;-72
2021/11/07 09:12:00;;;;;;;12.80;7.35;;;;;;;11.34;100.00;100906.08;1685718;83;21064;-73
2021/11/07 09:14:34;;;;;;;11.38;6.87;;;;;;;11.24;100.00;100893.95;1650816;85;21102;-73
2021/11/07 09:16:59;;;;;;;11.70;6.30;;;;;;;11.21;100.00;100895.13;1648683;84;21010;-73
2021/11/07 09:19:27;;;;;;;8.40;5.33;;;;;;;11.23;100.00;100899.55;1669127;84;21054;-72
2021/11/07 09:22:03;;;;;;;9.98;5.58;;;;;;;11.20;100.00;100893.41;1680753;84;21120;-73
2021/11/07 09:24:37;;;;;;;9.63;6.20;;;;;;;11.17;100.00;100889.69;1671672;83;21083;-73
2021/11/07 09:27:07;;;;;;;10.20;6.03;;;;;;;11.13;100.00;100883.37;1670975;83;21055;-74
2021/11/07 09:29:44;;;;;;;9.50;6.40;;;;;;;11.32;100.00;100876.95;1674430;83;21037;-73
2021/11/07 09:32:24;;;;;;;10.00;6.22;;;;;;;11.61;100.00;100873.12;1649047;85;21614;-74
2021/11/07 09:34:54;;;;;;;10.20;6.35;;;;;;;11.82;100.00;100880.39;1733271;81;21522;-73
2021/11/07 09:37:27;;;;;;;9.23;6.10;;;;;;;11.84;100.00;100867.52;1737273;81;21067;-73
2021/11/07 09:39:50;;;;;;;10.80;6.22;;;;;;;11.86;100.00;100867.37;1743643;81;21198;-72
2021/11/07 09:44:50;;;;;;;10.90;5.70;;;;;;;11.92;100.00;100864.91;1741397;81;21010;-73
2021/11/07 09:47:17;;;;;;;10.03;5.92;;;;;;;11.89;100.00;100863.00;1734388;81;21054;-73
2021/11/07 09:49:48;;;;;;;10.08;6.17;;;;;;;11.99;100.00;100850.22;1736607;81;21547;-73
2021/11/07 09:52:25;;;;;;;10.90;6.97;;;;;;;12.10;100.00;100849.09;1720230;81;21037;-73
2021/11/07 09:54:58;;;;;;;11.12;6.72;;;;;;;11.91;100.00;100850.16;1744764;81;21023;-72
2021/11/07 09:57:23;;;;;;;10.23;6.37;;;;;;;11.81;100.00;100846.67;1753910;80;21390;-74
2021/11/07 09:59:55;;;;;;;11.50;6.20;;;;;;;11.75;100.00;100840.03;1747630;81;21049;-73
2021/11/07 10:02:22;;;;;;;8.28;5.67;;;;;;;11.73;100.00;100833.93;1626422;87;21045;-73
2021/11/07 10:04:49;;;;;;;10.15;6.22;;;;;;;11.67;100.00;100832.72;1631233;87;21109;-74
2021/11/07 10:07:22;;;;;;;9.63;5.95;;;;;;;11.66;100.00;100843.70;1622867;87;21119;-74
2021/11/07 10:09:55;;;;;;;10.82;5.87;;;;;;;11.64;100.00;100834.38;1611805;87;21200;-72
2021/11/07 10:12:39;;;;;;;8.48;5.55;;;;;;;11.66;100.00;100825.58;1624562;86;21117;-73
2021/11/07 10:15:12;;;;;;;10.10;5.50;;;;;;;11.74;100.00;100820.23;1612497;87;21515;-72
2021/11/07 10:17:45;;;;;;;9.85;5.50;;;;;;;11.77;100.00;100817.69;1584104;89;21105;-73
2021/11/07 10:20:29;;;;;;;7.65;5.17;;;;;;;11.75;100.00;100819.72;1614405;87;21100;-72
2021/11/07 10:23:17;;;;;;;7.12;4.95;;;;;;;11.70;100.00;100812.56;1603114;89;21093;-73
2021/11/07 10:26:26;;;;;;;8.70;5.00;;;;;;;11.58;100.00;100802.52;1650235;86;21083;-73
2021/11/07 10:28:59;;;;;;;8.70;5.33;;;;;;;11.72;100.00;100796.52;1628875;87;21571;-74
2021/11/07 10:45:56;;;;;;;24.82;9.83;;;;;;;11.52;100.00;100790.95;1527456;92;21115;-73
2021/11/07 10:48:26;;;;;;;15.05;6.28;;;;;;;11.43;100.00;100790.05;1520752;93;21667;-72
2021/11/07 10:53:51;;;;;;;9.33;5.03;;;;;;;11.50;100.00;100779.44;1531146;91;21056;-73
2021/11/07 10:56:16;;;;;;;8.45;4.97;;;;;;;11.53;100.00;100769.65;1533105;92;21117;-73
2021/11/07 10:58:46;;;;;;;8.40;5.15;;;;;;;11.51;100.00;100767.09;1542636;90;21564;-73
2021/11/07 11:01:20;;;;;;;9.78;4.62;;;;;;;11.60;100.00;100751.75;1565477;90;21065;-72
2021/11/07 11:03:49;;;;;;;6.92;3.65;;;;;;;11.58;100.00;100752.41;1566767;90;21069;-73
2021/11/07 11:06:18;;;;;;;5.50;3.90;;;;;;;11.50;100.00;100753.19;1574882;90;21109;-73
2021/11/07 11:08:56;;;;;;;6.55;3.52;;;;;;;11.37;100.00;100757.69;1567650;90;21538;-71
2021/11/07 11:11:34;;;;;;;7.10;3.50;;;;;;;11.39;100.00;100750.77;1539399;92;21149;-73
2021/11/07 11:30:08;;;;;;;7.03;3.08;;;;;;;12.13;100.00;100718.66;1576045;89;21164;-73
2021/11/07 11:32:52;;;;;;;6.45;2.92;;;;;;;12.14;100.00;100707.62;1607307;88;21105;-73
2021/11/07 11:35:24;;;;;;;4.20;3.20;;;;;;;12.26;100.00;100700.03;1577682;88;21072;-73
2021/11/07 11:40:38;;;;;;;4.67;3.20;;;;;;;12.51;100.00;100694.14;1641590;85;21553;-72
2021/11/07 11:43:17;;;;;;;3.80;3.17;;;;;;;12.60;100.00;100686.02;1687468;84;21020;-73
2021/11/07 11:45:46;;;;;;;6.50;3.50;;;;;;;12.72;100.00;100688.22;1682756;82;21080;-73
2021/11/07 11:56:45;;;;;;;4.83;2.98;;;;;;;12.58;100.00;100678.56;1729123;82;21567;-74
2021/11/07 11:59:34;;;;;;;3.92;2.98;;;;;;;12.50;100.00;100675.31;1717518;83;21079;-73
2021/11/07 12:05:03;;;;;;;9.08;3.90;;;;;;;12.39;100.00;100679.20;1590371;89;21571;-72
2021/11/07 12:07:38;;;;;;;6.20;3.60;;;;;;;12.37;100.00;100666.84;1599388;87;21062;-73
2021/11/07 12:10:15;;;;;;;5.03;3.40;;;;;;;12.50;100.00;100657.20;1626127;85;21030;-72
2021/11/07 12:12:47;;;;;;;4.83;3.55;;;;;;;12.82;100.00;100646.48;1615485;87;21137;-72
2021/11/07 12:15:26;;;;;;;6.47;3.70;;;;;;;13.04;100.00;100647.14;1622662;87;21050;-72
2021/11/07 12:17:46;;;;;;;6.20;3.58;;;;;;;13.11;100.00;100648.67;1631173;87;21045;-72
2021/11/07 12:20:29;;;;;;;5.67;3.60;;;;;;;13.32;100.00;100650.02;1643280;86;21042;-73
2021/11/07 12:23:32;;;;;;;5.60;3.15;;;;;;;13.44;100.00;100655.41;1630544;86;21125;-72
2021/11/07 12:25:57;;;;;;;6.40;3.50;;;;;;;13.48;100.00;100656.75;1619504;88;21635;-73
2021/11/07 12:28:43;;;;;;;6.08;3.80;;;;;;;13.56;100.00;100673.00;1625060;87;21019;-73
2021/11/07 12:31:11;;;;;;;7.05;3.75;;;;;;;13.69;100.00;100668.39;1561418;91;21088;-72
2021/11/07 12:34:00;;;;;;;5.05;3.35;;;;;;;14.00;100.00;100667.03;1561358;89;21054;-72
2021/11/07 12:36:33;;;;;;;5.42;3.80;;;;;;;13.98;100.00;100664.17;1569761;90;21109;-73
2021/11/07 12:41:38;;;;;;;7.47;3.98;;;;;;;13.46;100.00;100681.89;1542370;92;21701;-72
2021/11/07 12:44:05;;;;;;;8.65;4.80;;;;;;;13.22;100.00;100686.31;1542934;92;21078;-73
2021/11/07 12:46:43;;;;;;;7.40;4.47;;;;;;;13.24;100.00;100680.22;1541977;92;21126;-73
2021/11/07 12:49:21;;;;;;;6.30;4.30;;;;;;;13.15;100.00;100675.80;1574569;90;21101;-73
2021/11/07 12:52:08;;;;;;;5.58;4.10;;;;;;;13.14;100.00;100675.48;1566105;91;21558;-71
2021/11/07 12:54:38;;;;;;;6.22;4.20;;;;;;;13.14;100.00;100671.89;1513966;94;21080;-73
2021/11/07 12:57:14;;;;;;;7.90;4.50;;;;;;;13.13;100.00;100662.08;1500090;94;21567;-73
2021/11/07 12:59:52;;;;;;;9.10;5.12;;;;;;;13.01;100.00;100650.20;1490088;94;21724;-71
2021/11/07 13:02:29;;;;;;;11.63;5.78;;;;;;;12.66;100.00;100649.57;1538848;90;21080;-72
2021/11/07 13:05:21;;;;;;;9.80;5.10;;;;;;;12.32;100.00;100651.06;1553906;90;21622;-72
2021/11/07 13:07:55;;;;;;;8.83;4.95;;;;;;;12.18;100.00;100639.52;1569582;90;21064;-72
2021/11/07 13:10:47;;;;;;;8.23;4.67;;;;;;;12.09;100.00;100637.30;1577553;89;21549;-72
2021/11/07 13:23:49;;;;;;;14.15;5.50;;;;;;;11.66;100.00;100640.02;1534782;93;21135;-71
2021/11/07 13:31:40;;;;;;;10.45;5.20;;;;;;;10.71;100.00;100635.95;1615003;88;21573;-72
2021/11/07 13:34:07;;;;;;;12.18;6.37;;;;;;;10.56;100.00;100623.98;1617273;88;21096;-73
2021/11/07 13:36:41;;;;;;;12.35;5.53;;;;;;;10.50;100.00;100627.30;1615765;88;21051;-73
2021/11/07 13:39:10;;;;;;;11.55;6.00;;;;;;;10.41;100.00;100631.31;1582901;89;21734;-72